Main page
METAR-TAF:

METAR-TAF

Airports :

Baikal International Airport

Ulan-Ude, Russia

latitude: 51-50N, longitude: 107-36E, elevation: 510 m

Current weather observation

The report was made 43 minutes ago, at 06:30 UTC
Wind 10 kt from the North, varying between Northwest and North/Northeast
Temperature 10°C
Humidity 43%
Pressure 1014 hPa
Visibility 10 km or more
Few clouds at a height of 4600 ft

METAR: UIUU 260630Z 35005MPS 310V020 9999 FEW046 10/M02 Q1014 R26/190060 NOSIG RMK QFE717/0956

Time: 15:13 (07:13 UTC)

Forecast

The report was made 2 hours and 13 minutes ago, at 05:00 UTC
Forecast valid from 26 at 06 UTC to 27 at 06 UTC
Wind 12 kt from the West with gusts up to 23 kt
Visibility 10 km or more
Scattered clouds at a height of 3000 ft, Cumulonimbus.
Temporary
from 26 at 06 UTC to 27 at 06 UTC
Wind 6 kt from the North/Northwest with gusts up to 16 kt
Broken clouds at a height of 1400 ft, Cumulonimbus.

TAF: UIUU 260500Z 2606/2706 27006G12MPS 9999 SCT030CB TEMPO 2606/2706 34003G08MPS BKN014CB

Weather observations and forecasts of more than 4000 airports (METAR and TAF reports).

The available stations are represented by yellow and red dots on the map.

Hover mouse over dot to see the name of the station.

Then click to see weather observations and forecasts.

To change the map : click on the green buttons with a black cross to zoom in, on the green button with a dash to zoom out, or on the green arrows for adjacent maps.


METAR-TAF: